TimeMDT,TemperatureF,Dew PointF,Humidity,Sea Level PressureIn,VisibilityMPH,Wind Direction,Wind SpeedMPH,Gust SpeedMPH,PrecipitationIn,Events,Conditions,WindDirDegrees,DateUTC
12:15 AM,59.0,32.0,36,30.16,10.0,West,11.5,-,N/A,,Clear,270,2012-10-03 06:15:00
12:35 AM,59.0,32.0,36,30.15,10.0,WNW,8.1,-,N/A,,Clear,290,2012-10-03 06:35:00
12:55 AM,57.2,32.0,38,30.15,10.0,West,8.1,-,N/A,,Clear,280,2012-10-03 06:55:00
1:15 AM,57.2,32.0,38,30.15,10.0,West,9.2,-,N/A,,Clear,270,2012-10-03 07:15:00
1:35 AM,57.2,32.0,38,30.15,10.0,West,9.2,-,N/A,,Clear,260,2012-10-03 07:35:00
1:55 AM,57.2,32.0,38,30.15,10.0,West,10.4,-,N/A,,Clear,260,2012-10-03 07:55:00
2:15 AM,57.2,32.0,38,30.15,10.0,WSW,13.8,-,N/A,,Clear,250,2012-10-03 08:15:00
2:35 AM,57.2,32.0,38,30.14,10.0,West,12.7,-,N/A,,Clear,260,2012-10-03 08:35:00
2:55 AM,57.2,32.0,38,30.14,10.0,WSW,11.5,-,N/A,,Clear,250,2012-10-03 08:55:00
3:15 AM,57.2,30.2,36,30.14,10.0,West,11.5,-,N/A,,Clear,260,2012-10-03 09:15:00
3:35 AM,59.0,30.2,34,30.14,10.0,West,12.7,-,N/A,,Clear,270,2012-10-03 09:35:00
3:55 AM,57.2,30.2,36,30.14,10.0,West,9.2,-,N/A,,Clear,280,2012-10-03 09:55:00
4:15 AM,57.2,30.2,36,30.14,10.0,West,10.4,-,N/A,,Clear,270,2012-10-03 10:15:00
4:55 AM,57.2,30.2,36,30.15,10.0,West,10.4,-,N/A,,Clear,280,2012-10-03 10:55:00
5:15 AM,57.2,30.2,36,30.15,10.0,West,11.5,-,N/A,,Clear,270,2012-10-03 11:15:00
5:35 AM,57.2,30.2,36,30.16,10.0,West,11.5,-,N/A,,Clear,270,2012-10-03 11:35:00
5:55 AM,57.2,28.4,33,30.16,10.0,West,10.4,-,N/A,,Clear,270,2012-10-03 11:55:00
6:15 AM,55.4,28.4,36,30.16,10.0,West,10.4,-,N/A,,Clear,270,2012-10-03 12:15:00
6:35 AM,55.4,30.2,38,30.16,10.0,West,9.2,-,N/A,,Clear,280,2012-10-03 12:35:00
6:55 AM,55.4,28.4,36,30.17,10.0,West,10.4,-,N/A,,Clear,260,2012-10-03 12:55:00
7:15 AM,57.2,26.6,31,30.16,10.0,West,11.5,17.3,N/A,,Clear,270,2012-10-03 13:15:00
7:35 AM,59.0,26.6,29,30.17,10.0,West,11.5,18.4,N/A,,Clear,280,2012-10-03 13:35:00
7:55 AM,60.8,24.8,25,30.17,10.0,WNW,11.5,17.3,N/A,,Clear,300,2012-10-03 13:55:00
8:15 AM,62.6,26.6,26,30.17,10.0,WNW,12.7,19.6,N/A,,Clear,300,2012-10-03 14:15:00
8:35 AM,64.4,24.8,22,30.18,10.0,WNW,13.8,23.0,N/A,,Clear,300,2012-10-03 14:35:00
8:55 AM,66.2,24.8,21,30.19,10.0,WNW,15.0,21.9,N/A,,Clear,300,2012-10-03 14:55:00
9:15 AM,68.0,24.8,20,30.20,10.0,WNW,16.1,21.9,N/A,,Clear,300,2012-10-03 15:15:00
9:35 AM,68.0,23.0,18,30.20,10.0,WNW,16.1,23.0,N/A,,Clear,300,2012-10-03 15:35:00
9:55 AM,68.0,23.0,18,30.21,10.0,WNW,15.0,26.5,N/A,,Clear,300,2012-10-03 15:55:00
10:15 AM,71.6,23.0,16,30.21,10.0,NW,18.4,27.6,N/A,,Clear,320,2012-10-03 16:15:00
10:35 AM,71.6,23.0,16,30.21,10.0,NNW,16.1,24.2,N/A,,Clear,330,2012-10-03 16:35:00
10:55 AM,71.6,23.0,16,30.21,10.0,NW,19.6,27.6,N/A,,Clear,320,2012-10-03 16:55:00
11:15 AM,73.4,23.0,15,30.21,10.0,WNW,15.0,29.9,N/A,,Clear,300,2012-10-03 17:15:00
11:35 AM,73.4,23.0,15,30.21,10.0,NW,18.4,31.1,N/A,,Clear,320,2012-10-03 17:35:00
11:55 AM,73.4,23.0,15,30.20,10.0,NW,17.3,31.1,N/A,,Clear,320,2012-10-03 17:55:00
12:15 PM,75.2,24.8,15,30.20,10.0,NNW,16.1,26.5,N/A,,Clear,340,2012-10-03 18:15:00
12:35 PM,75.2,23.0,14,30.20,10.0,NW,21.9,31.1,N/A,,Clear,320,2012-10-03 18:35:00
1:15 PM,75.2,21.2,13,30.18,10.0,NW,19.6,35.7,N/A,,Clear,310,2012-10-03 19:15:00
1:35 PM,75.2,21.2,13,30.18,10.0,West,18.4,31.1,N/A,,Clear,280,2012-10-03 19:35:00
1:55 PM,75.2,23.0,14,30.17,10.0,West,17.3,38.0,N/A,,Clear,280,2012-10-03 19:55:00
2:15 PM,77.0,23.0,13,30.16,10.0,West,21.9,26.5,N/A,,Clear,280,2012-10-03 20:15:00
2:35 PM,77.0,23.0,13,30.16,10.0,West,17.3,28.8,N/A,,Clear,280,2012-10-03 20:35:00
2:55 PM,77.0,21.2,12,30.16,10.0,WNW,20.7,31.1,N/A,,Clear,300,2012-10-03 20:55:00
3:15 PM,77.0,23.0,13,30.17,10.0,West,21.9,28.8,N/A,,Clear,280,2012-10-03 21:15:00
3:35 PM,77.0,23.0,13,30.17,10.0,NW,19.6,29.9,N/A,,Clear,310,2012-10-03 21:35:00
3:55 PM,77.0,23.0,13,30.16,10.0,WNW,17.3,32.2,N/A,,Clear,300,2012-10-03 21:55:00
4:15 PM,77.0,23.0,13,30.17,10.0,WNW,18.4,36.8,N/A,,Clear,300,2012-10-03 22:15:00
4:35 PM,77.0,23.0,13,30.17,10.0,WNW,17.3,28.8,N/A,,Clear,300,2012-10-03 22:35:00
4:55 PM,77.0,23.0,13,30.17,10.0,West,12.7,32.2,N/A,,Clear,280,2012-10-03 22:55:00
5:15 PM,77.0,23.0,13,30.17,10.0,WNW,10.4,20.7,N/A,,Clear,290,2012-10-03 23:15:00
5:35 PM,75.2,21.2,13,30.17,10.0,WNW,11.5,23.0,N/A,,Clear,300,2012-10-03 23:35:00
5:55 PM,75.2,21.2,13,30.17,10.0,West,16.1,21.9,N/A,,Clear,270,2012-10-03 23:55:00
6:15 PM,73.4,21.2,14,30.18,10.0,West,10.4,19.6,N/A,,Clear,280,2012-10-04 00:15:00
6:35 PM,71.6,21.2,15,30.18,10.0,West,11.5,17.3,N/A,,Clear,280,2012-10-04 00:35:00
6:55 PM,71.6,21.2,15,30.19,10.0,West,3.5,-,N/A,,Clear,270,2012-10-04 00:55:00
7:15 PM,68.0,21.2,17,30.20,10.0,West,6.9,-,N/A,,Clear,260,2012-10-04 01:15:00
7:35 PM,64.4,23.0,21,30.20,10.0,SSW,6.9,-,N/A,,Clear,210,2012-10-04 01:35:00
7:55 PM,64.4,24.8,22,30.20,10.0,SW,9.2,-,N/A,,Clear,230,2012-10-04 01:55:00
8:15 PM,64.4,24.8,22,30.21,10.0,SW,8.1,-,N/A,,Clear,230,2012-10-04 02:15:00
8:35 PM,64.4,24.8,22,30.22,10.0,SSW,8.1,-,N/A,,Clear,200,2012-10-04 02:35:00
8:55 PM,60.8,24.8,25,30.22,10.0,SW,6.9,-,N/A,,Clear,230,2012-10-04 02:55:00
9:15 PM,64.4,23.0,21,30.23,10.0,West,8.1,-,N/A,,Clear,270,2012-10-04 03:15:00
9:35 PM,64.4,23.0,21,30.23,10.0,West,8.1,-,N/A,,Clear,260,2012-10-04 03:35:00
9:55 PM,64.4,23.0,21,30.24,10.0,West,8.1,-,N/A,,Clear,270,2012-10-04 03:55:00
10:15 PM,62.6,23.0,22,30.24,10.0,West,9.2,-,N/A,,Clear,260,2012-10-04 04:15:00
10:35 PM,62.6,23.0,22,30.25,10.0,West,9.2,-,N/A,,Clear,270,2012-10-04 04:35:00
10:55 PM,62.6,23.0,22,30.26,10.0,West,9.2,-,N/A,,Clear,270,2012-10-04 04:55:00
11:15 PM,62.6,23.0,22,30.26,10.0,WNW,8.1,-,N/A,,Clear,290,2012-10-04 05:15:00
11:35 PM,62.6,23.0,22,30.26,10.0,WNW,9.2,-,N/A,,Clear,290,2012-10-04 05:35:00
11:55 PM,64.4,21.2,19,30.27,10.0,WNW,8.1,-,N/A,,Clear,290,2012-10-04 05:55:00